Bloomingburg, New York
Current Conditions -  °F | °C
As of 11:54 PM on Friday 19 Dec 2014 (Local Time) from KMGJ Reporting Station
Overcast Overcast  
Wind Chill: 27°   Ceiling: 2800
Heat Index: 27°   Visibility: 10mi
Dew Point: 23°   Wind: 3mph
Humidity: 85%   Direction: 60°ENE
Pressure: 30.18"   Gusts: NA
Location:  41.55°N, 74.44°W
Report Text: KMGJ 200454Z AUTO 06003KT 10SM OVC028 M03/M05 A3018 RMK AO2 SLP224 T10281050 400221044 TSNO
Loading
Personal Weather Stations






























Interactive Weather Map New forecast layout! Learn more

10-Day Weather Forecast

Advertisements
Track Severe Weather on mobile